Time;durP1;ratioP1;P1;durP2;ratioP2;P2;SDS_P1;SDS_P2;PMS_P1;PMS_P2;Temp;Humidity;BMP_temperature;BMP_pressure;BME280_temperature;BME280_humidity;BME280_pressure;Samples;Min_cycle;Max_cycle;Signal;HPM_P1;HPM_P2
2021/03/16 00:01:27;;;;;;;0.80;0.40;;;;;;;3.88;100.00;99063.31;3896307;74;383779;-80
2021/03/16 00:06:49;;;;;;;0.80;0.40;;;;;;;3.86;100.00;99065.59;3896404;74;383653;-80
2021/03/16 00:12:11;;;;;;;0.80;0.40;;;;;;;3.80;100.00;99065.63;3896462;75;383799;-80
2021/03/16 00:17:31;;;;;;;1.00;0.90;;;;;;;3.80;100.00;99073.23;3895934;75;383543;-80
2021/03/16 00:22:53;;;;;;;0.80;0.40;;;;;;;3.70;100.00;99062.90;3896291;74;383548;-80
2021/03/16 00:28:14;;;;;;;0.80;0.60;;;;;;;3.78;100.00;99082.91;3896348;74;383574;-80
2021/03/16 00:33:35;;;;;;;0.90;0.60;;;;;;;3.81;100.00;99091.14;3896425;74;383870;-81
2021/03/16 00:38:57;;;;;;;0.90;0.67;;;;;;;3.81;100.00;99098.50;3896074;74;383606;-81
2021/03/16 00:44:18;;;;;;;0.90;0.70;;;;;;;3.76;100.00;99100.14;3896046;74;390030;-81
2021/03/16 00:49:39;;;;;;;0.80;0.60;;;;;;;3.98;100.00;99110.58;3766504;77;383793;-81
2021/03/16 00:55:00;;;;;;;1.03;0.93;;;;;;;3.98;100.00;99114.66;3892471;75;391931;-80
2021/03/16 01:00:23;;;;;;;1.07;0.97;;;;;;;4.02;100.00;99120.17;3895864;74;391931;-81
2021/03/16 01:05:44;;;;;;;0.80;0.40;;;;;;;4.10;100.00;99127.36;3896664;74;383790;-81
2021/03/16 01:11:05;;;;;;;1.43;0.97;;;;;;;4.10;100.00;99131.44;3895702;74;393958;-81
2021/03/16 01:16:26;;;;;;;1.47;1.33;;;;;;;4.11;100.00;99128.38;3896151;74;383837;-81
2021/03/16 01:21:47;;;;;;;2.00;1.17;;;;;;;4.08;100.00;99139.97;3765346;78;396065;-81
2021/03/16 01:27:10;;;;;;;1.10;1.00;;;;;;;3.98;100.00;99153.34;3895678;75;391861;-81
2021/03/16 01:32:31;;;;;;;1.40;1.10;;;;;;;4.11;100.00;99157.52;3895815;75;389830;-81
2021/03/16 01:37:57;;;;;;;2.03;1.43;;;;;;;4.03;100.00;99163.39;3749228;77;383901;-81
2021/03/16 01:43:24;;;;;;;0.87;0.70;;;;;;;3.85;100.00;99167.41;3896471;74;383843;-80
2021/03/16 01:48:45;;;;;;;0.87;0.70;;;;;;;3.93;100.00;99173.45;3896604;74;383810;-81
2021/03/16 01:54:08;;;;;;;3.17;1.07;;;;;;;3.96;100.00;99169.23;3895726;74;393950;-82
2021/03/16 01:59:29;;;;;;;0.90;0.77;;;;;;;3.84;100.00;99167.18;3749534;77;391911;-81
2021/03/16 02:04:51;;;;;;;1.37;1.17;;;;;;;3.69;100.00;99169.35;3895906;74;387776;-81
2021/03/16 02:10:15;;;;;;;1.23;1.13;;;;;;;3.73;100.00;99164.77;3749605;77;383794;-81
2021/03/16 02:15:40;;;;;;;9.27;1.33;;;;;;;3.67;100.00;99177.06;3895704;74;383790;-82
2021/03/16 02:21:22;;;;;;;0.80;0.47;;;;;;;3.72;100.00;99177.59;3896895;74;383833;-82
2021/03/16 02:27:03;;;;;;;1.10;1.00;;;;;;;3.73;100.00;99176.45;3895775;74;392234;-81
2021/03/16 02:32:26;;;;;;;0.90;0.60;;;;;;;3.64;100.00;99183.20;3766897;78;383798;-82
2021/03/16 02:37:49;;;;;;;0.80;0.50;;;;;;;3.66;100.00;99191.80;3895401;75;383818;-82
2021/03/16 02:43:12;;;;;;;0.80;0.40;;;;;;;3.60;100.00;99199.43;3897091;74;383788;-82
2021/03/16 02:48:34;;;;;;;1.83;1.73;;;;;;;3.52;100.00;99203.70;3895097;74;396306;-82
2021/03/16 02:53:58;;;;;;;2.40;1.60;;;;;;;3.49;100.00;99204.38;3896176;74;383539;-82
2021/03/16 02:59:21;;;;;;;1.63;0.80;;;;;;;3.50;100.00;99201.89;3895857;74;394017;-81
2021/03/16 03:04:44;;;;;;;0.80;0.40;;;;;;;3.52;100.00;99205.05;3896708;75;383569;-81
2021/03/16 03:10:06;;;;;;;3.57;2.33;;;;;;;3.46;100.00;99221.42;3895722;74;392992;-81
2021/03/16 03:15:27;;;;;;;1.10;0.57;;;;;;;3.36;100.00;99224.06;3896442;74;383555;-81
2021/03/16 03:20:49;;;;;;;0.80;0.40;;;;;;;3.35;100.00;99221.70;3896312;74;383593;-82
2021/03/16 03:26:20;;;;;;;1.20;0.83;;;;;;;3.28;100.00;99219.58;3895832;75;393976;-82
2021/03/16 03:31:47;;;;;;;2.20;2.00;;;;;;;3.30;100.00;99219.25;3895453;74;396121;-82
2021/03/16 03:37:09;;;;;;;0.90;0.50;;;;;;;3.02;100.00;99229.34;3896277;74;385618;-82
2021/03/16 03:42:33;;;;;;;0.80;0.40;;;;;;;3.21;100.00;99225.41;3896708;74;383818;-82
2021/03/16 03:47:57;;;;;;;0.90;0.53;;;;;;;3.23;100.00;99240.81;3749562;77;387807;-82
2021/03/16 03:53:19;;;;;;;0.90;0.60;;;;;;;3.19;100.00;99248.06;3896531;74;383820;-82
2021/03/16 03:58:43;;;;;;;1.73;1.43;;;;;;;3.24;100.00;99257.31;3895664;75;385614;-82
2021/03/16 04:04:05;;;;;;;0.80;0.40;;;;;;;3.18;100.00;99261.42;3896310;74;383624;-82
2021/03/16 04:09:26;;;;;;;0.90;0.57;;;;;;;3.20;100.00;99267.31;3896458;74;383770;-82
2021/03/16 04:14:47;;;;;;;1.30;0.70;;;;;;;3.21;100.00;99269.67;3896066;75;383578;-82
2021/03/16 04:20:10;;;;;;;0.80;0.40;;;;;;;3.12;100.00;99264.17;3896164;74;383834;-81
2021/03/16 04:25:32;;;;;;;0.83;0.57;;;;;;;3.12;100.00;99280.48;3750008;75;383605;-82
2021/03/16 04:30:56;;;;;;;0.80;0.50;;;;;;;3.17;100.00;99284.30;3896349;74;383578;-82
2021/03/16 04:36:18;;;;;;;0.90;0.80;;;;;;;3.18;100.00;99283.17;3750129;77;383833;-81
2021/03/16 04:41:39;;;;;;;0.80;0.50;;;;;;;3.22;100.00;99293.00;3896937;74;383585;-81
2021/03/16 04:47:01;;;;;;;1.20;1.10;;;;;;;3.18;100.00;99302.20;3896283;74;383794;-82
2021/03/16 04:52:23;;;;;;;20.77;3.23;;;;;;;3.34;100.00;99305.75;3749374;77;385626;-82
2021/03/16 04:57:44;;;;;;;2.90;1.57;;;;;;;3.38;100.00;99306.66;3895427;74;396329;-81
2021/03/16 05:03:06;;;;;;;0.80;0.50;;;;;;;3.32;100.00;99322.42;3896771;75;383875;-82
2021/03/16 05:08:27;;;;;;;1.83;1.40;;;;;;;3.18;100.00;99333.45;3895946;74;385649;-82
2021/03/16 05:13:48;;;;;;;0.90;0.70;;;;;;;3.09;100.00;99339.59;3896433;74;385664;-82
2021/03/16 05:19:10;;;;;;;1.37;0.90;;;;;;;2.95;100.00;99340.54;3895795;75;394002;-82
2021/03/16 05:24:31;;;;;;;1.30;0.70;;;;;;;2.80;100.00;99349.41;3749696;77;383771;-82
2021/03/16 05:29:52;;;;;;;0.90;0.80;;;;;;;2.77;100.00;99358.80;3908792;74;383538;-81
2021/03/16 05:35:13;;;;;;;1.57;0.80;;;;;;;2.77;100.00;99362.30;3894082;74;390077;-82
2021/03/16 05:40:35;;;;;;;0.90;0.60;;;;;;;2.72;100.00;99373.95;3884362;75;383610;-81
2021/03/16 05:45:58;;;;;;;6.43;1.77;;;;;;;2.80;100.00;99375.76;3773909;76;383809;-82
2021/03/16 05:51:19;;;;;;;0.80;0.50;;;;;;;2.75;100.00;99388.22;3770840;77;383641;-82
2021/03/16 05:56:40;;;;;;;1.47;0.90;;;;;;;2.93;100.00;99395.78;3742617;77;390085;-82
2021/03/16 06:02:03;;;;;;;1.07;0.97;;;;;;;3.00;100.00;99408.80;3743063;78;383813;-83
2021/03/16 06:07:24;;;;;;;0.90;0.50;;;;;;;2.86;100.00;99413.23;3743062;77;383539;-82
2021/03/16 06:12:45;;;;;;;2.13;1.23;;;;;;;2.84;100.00;99416.06;3742710;78;383577;-82
2021/03/16 06:18:07;;;;;;;0.80;0.50;;;;;;;3.23;100.00;99422.94;3743379;77;383581;-82
2021/03/16 06:23:34;;;;;;;0.97;0.87;;;;;;;3.31;100.00;99431.53;3742750;78;391919;-82
2021/03/16 06:29:11;;;;;;;0.80;0.50;;;;;;;3.40;100.00;99431.61;3750818;77;383794;-82
2021/03/16 06:34:33;;;;;;;0.80;0.50;;;;;;;3.45;100.00;99436.02;3755461;78;383794;-82
2021/03/16 06:39:57;;;;;;;1.00;0.90;;;;;;;3.57;100.00;99432.70;3755298;78;383936;-82
2021/03/16 06:45:17;;;;;;;0.90;0.60;;;;;;;3.65;100.00;99437.76;3755583;78;385657;-82
2021/03/16 06:50:40;;;;;;;4.73;1.07;;;;;;;3.75;100.00;99440.80;3753996;78;394318;-82
2021/03/16 06:56:01;;;;;;;0.90;0.63;;;;;;;3.88;100.00;99449.12;3755543;78;383562;-82
2021/03/16 07:01:24;;;;;;;7.30;3.33;;;;;;;3.95;100.00;99456.12;3755162;78;383558;-81
2021/03/16 07:06:46;;;;;;;1.07;0.70;;;;;;;3.99;100.00;99470.06;3755243;78;388043;-81
2021/03/16 07:12:09;;;;;;;2.10;1.17;;;;;;;4.08;100.00;99481.59;3754367;77;394009;-81
2021/03/16 07:17:30;;;;;;;0.80;0.50;;;;;;;4.21;100.00;99494.59;3755857;78;383581;-81
2021/03/16 07:22:55;;;;;;;0.80;0.60;;;;;;;4.35;100.00;99503.13;3755851;78;383592;-81
2021/03/16 07:28:16;;;;;;;0.80;0.50;;;;;;;4.62;100.00;99511.26;3756627;77;383581;-82
2021/03/16 07:33:38;;;;;;;4.50;0.80;;;;;;;4.95;100.00;99515.81;3754967;78;389793;-81
2021/03/16 07:39:02;;;;;;;1.93;1.00;;;;;;;4.88;100.00;99525.18;3755079;78;389816;-81
2021/03/16 07:44:23;;;;;;;0.80;0.40;;;;;;;4.84;100.00;99533.27;3755751;77;383794;-81
2021/03/16 07:49:45;;;;;;;0.80;0.50;;;;;;;4.86;100.00;99534.27;3755912;77;383569;-81
2021/03/16 07:55:06;;;;;;;0.80;0.60;;;;;;;4.88;100.00;99530.08;3755816;78;383584;-80
2021/03/16 08:00:30;;;;;;;1.33;1.00;;;;;;;4.90;100.00;99529.72;3755128;78;388020;-80
2021/03/16 08:05:52;;;;;;;0.80;0.50;;;;;;;5.05;100.00;99533.80;3755413;78;383605;-80
2021/03/16 08:11:13;;;;;;;0.80;0.50;;;;;;;4.64;100.00;99528.06;3755753;78;383589;-82
2021/03/16 08:16:39;;;;;;;0.90;0.60;;;;;;;5.00;100.00;99531.34;3755462;77;383912;-81
2021/03/16 08:22:01;;;;;;;0.80;0.40;;;;;;;5.55;94.83;99549.66;3755787;77;383822;-81
2021/03/16 08:27:25;;;;;;;0.80;0.50;;;;;;;5.42;93.01;99544.66;3755558;77;383546;-81
2021/03/16 08:32:45;;;;;;;1.00;0.87;;;;;;;5.34;92.71;99550.28;3754640;78;391923;-81
2021/03/16 08:38:07;;;;;;;1.00;0.67;;;;;;;5.41;91.81;99555.34;3755293;78;388011;-82
2021/03/16 08:43:29;;;;;;;1.43;0.93;;;;;;;5.23;92.17;99556.84;3755287;77;388822;-81
2021/03/16 08:48:51;;;;;;;0.90;0.50;;;;;;;5.13;89.40;99553.86;3755644;77;383588;-82
2021/03/16 08:54:25;;;;;;;1.00;0.60;;;;;;;5.24;86.79;99561.16;3754793;78;387867;-81
2021/03/16 08:59:56;;;;;;;0.90;0.60;;;;;;;5.19;89.91;99570.17;3755849;78;383852;-81
2021/03/16 09:05:27;;;;;;;1.10;1.00;;;;;;;5.20;91.33;99569.03;3755057;77;387738;-82
2021/03/16 09:10:49;;;;;;;0.80;0.40;;;;;;;5.22;87.17;99576.30;3755749;77;383592;-82
2021/03/16 09:16:13;;;;;;;0.80;0.50;;;;;;;5.39;87.65;99567.17;3755970;78;383629;-81
2021/03/16 09:21:34;;;;;;;0.80;0.40;;;;;;;5.65;85.23;99581.84;3755652;77;383790;-81
2021/03/16 09:26:58;;;;;;;0.90;0.60;;;;;;;5.98;83.40;99571.31;3755541;78;383817;-82
2021/03/16 09:32:21;;;;;;;1.03;0.93;;;;;;;6.00;84.06;99573.11;3765296;76;383856;-81
2021/03/16 09:37:45;;;;;;;4.00;0.77;;;;;;;6.14;83.05;99575.36;3763506;76;394116;-81
2021/03/16 09:43:28;;;;;;;1.93;0.80;;;;;;;6.04;81.64;99579.46;3862663;75;383795;-80
2021/03/16 09:48:52;;;;;;;0.90;0.70;;;;;;;6.12;82.40;99584.48;3896747;74;384500;-81
2021/03/16 09:54:14;;;;;;;0.87;0.50;;;;;;;6.52;81.80;99587.88;3896736;74;383775;-81
2021/03/16 09:59:41;;;;;;;0.80;0.40;;;;;;;6.59;82.45;99592.12;3897244;74;383802;-81
2021/03/16 10:05:08;;;;;;;0.90;0.70;;;;;;;6.50;76.73;99597.60;3897183;74;386087;-81
2021/03/16 10:10:37;;;;;;;0.87;0.60;;;;;;;6.57;79.04;99591.71;3766575;77;383861;-80
2021/03/16 10:15:59;;;;;;;1.10;0.63;;;;;;;6.32;80.96;99591.56;3896693;74;383850;-81
2021/03/16 10:21:32;;;;;;;0.97;0.87;;;;;;;6.56;78.57;99594.78;3896495;74;384831;-81
2021/03/16 10:27:00;;;;;;;1.20;0.90;;;;;;;7.24;78.30;99593.17;3765943;76;383822;-81
2021/03/16 10:32:21;;;;;;;4.67;1.20;;;;;;;6.94;68.87;99590.66;3895601;74;397095;-81
2021/03/16 10:37:46;;;;;;;2.60;0.63;;;;;;;7.46;65.92;99595.69;3896096;74;391849;-81
2021/03/16 10:43:08;;;;;;;0.80;0.50;;;;;;;7.39;64.36;99605.16;3750124;78;384568;-81
2021/03/16 10:48:29;;;;;;;1.30;1.20;;;;;;;6.69;65.88;99604.44;3896065;74;383590;-81
2021/03/16 10:53:50;;;;;;;0.90;0.50;;;;;;;6.70;68.59;99608.76;3896623;74;383574;-81
2021/03/16 10:59:13;;;;;;;0.80;0.40;;;;;;;6.84;66.35;99602.97;3751052;77;384548;-81
2021/03/16 11:04:35;;;;;;;1.40;0.80;;;;;;;7.23;63.98;99598.98;3895821;74;395187;-82
2021/03/16 11:09:56;;;;;;;1.50;1.10;;;;;;;7.25;64.75;99611.17;3749378;77;393923;-81
2021/03/16 11:15:17;;;;;;;1.10;0.80;;;;;;;6.88;66.74;99609.86;3895800;74;392883;-81
2021/03/16 11:20:38;;;;;;;0.80;0.60;;;;;;;6.62;68.33;99618.75;3749641;77;384498;-81
2021/03/16 11:26:00;;;;;;;5.40;1.30;;;;;;;6.67;66.13;99623.91;3895187;74;393988;-81
2021/03/16 11:31:21;;;;;;;1.07;0.97;;;;;;;6.51;68.92;99619.69;3896393;74;383795;-81
2021/03/16 11:36:43;;;;;;;1.47;0.90;;;;;;;6.59;67.74;99618.09;3895520;74;394270;-80
2021/03/16 11:42:04;;;;;;;30.07;1.00;;;;;;;7.00;68.50;99615.19;3765810;77;383576;-81
2021/03/16 11:47:26;;;;;;;0.80;0.50;;;;;;;6.97;68.39;99619.45;3893279;75;383965;-80
2021/03/16 11:52:47;;;;;;;0.90;0.60;;;;;;;6.88;64.58;99622.17;3896090;75;384512;-80
2021/03/16 11:58:09;;;;;;;0.90;0.50;;;;;;;6.97;65.50;99629.02;3766053;77;383580;-80
2021/03/16 12:03:30;;;;;;;1.10;0.80;;;;;;;6.98;66.32;99625.13;3895893;74;383838;-81
2021/03/16 12:08:52;;;;;;;2.17;0.83;;;;;;;7.20;66.04;99616.93;3895298;74;391011;-81
2021/03/16 12:14:13;;;;;;;1.93;1.70;;;;;;;6.88;66.50;99613.41;3894830;74;396091;-81
2021/03/16 12:19:34;;;;;;;0.83;0.60;;;;;;;6.94;66.18;99611.17;3896272;74;384567;-81
2021/03/16 12:24:55;;;;;;;0.90;0.50;;;;;;;6.98;65.56;99605.17;3896353;74;384555;-81
2021/03/16 12:30:18;;;;;;;1.20;0.80;;;;;;;6.93;66.48;99591.22;3896153;74;385665;-81
2021/03/16 12:35:41;;;;;;;0.80;0.40;;;;;;;7.25;65.45;99594.75;3896516;74;383811;-80
2021/03/16 12:41:02;;;;;;;2.80;1.00;;;;;;;7.35;62.94;99585.91;3749519;77;390022;-81
2021/03/16 12:46:23;;;;;;;0.90;0.47;;;;;;;7.47;62.25;99587.10;3896568;75;384512;-80
2021/03/16 12:51:46;;;;;;;0.80;0.40;;;;;;;7.47;62.33;99586.33;3896615;74;383605;-80
2021/03/16 12:57:07;;;;;;;1.70;0.67;;;;;;;7.73;61.73;99583.02;3896131;74;387666;-80
2021/03/16 13:02:28;;;;;;;0.83;0.57;;;;;;;7.35;63.66;99579.66;3749898;77;384825;-80
2021/03/16 13:07:49;;;;;;;3.87;1.03;;;;;;;7.41;62.89;99579.00;3895325;74;395012;-81
2021/03/16 13:13:11;;;;;;;0.90;0.50;;;;;;;7.54;64.49;99570.79;3896545;74;383944;-80
2021/03/16 13:18:32;;;;;;;0.80;0.50;;;;;;;8.41;60.50;99570.70;3896750;74;384503;-81
2021/03/16 13:23:54;;;;;;;0.90;0.70;;;;;;;9.31;58.07;99568.13;3896496;74;384561;-80
2021/03/16 13:29:15;;;;;;;11.73;1.27;;;;;;;9.91;54.54;99564.67;3895963;74;384547;-80
2021/03/16 13:34:37;;;;;;;0.97;0.60;;;;;;;8.73;57.59;99560.30;3896671;74;386618;-81
2021/03/16 13:40:00;;;;;;;2.20;2.00;;;;;;;8.13;60.96;99559.92;3895432;74;389842;-80
2021/03/16 13:45:21;;;;;;;0.80;0.50;;;;;;;7.92;61.27;99555.50;3896304;74;384629;-81
2021/03/16 13:50:42;;;;;;;0.90;0.73;;;;;;;7.90;62.28;99548.27;3896422;74;383577;-80
2021/03/16 13:56:04;;;;;;;0.90;0.60;;;;;;;7.83;60.81;99549.53;3749948;78;384847;-80
2021/03/16 14:01:25;;;;;;;0.80;0.50;;;;;;;7.75;59.63;99546.48;3896648;74;384503;-80
2021/03/16 14:06:46;;;;;;;0.80;0.40;;;;;;;7.97;60.53;99539.55;3896211;74;383854;-80
2021/03/16 14:12:09;;;;;;;0.90;0.70;;;;;;;8.97;55.85;99544.67;3749933;78;384764;-81
2021/03/16 14:17:30;;;;;;;0.90;0.57;;;;;;;10.29;52.23;99533.09;3896464;74;384551;-81
2021/03/16 14:22:51;;;;;;;1.27;0.70;;;;;;;9.64;51.90;99527.61;3895713;74;394019;-81
2021/03/16 14:28:12;;;;;;;0.90;0.63;;;;;;;9.54;53.48;99520.64;3896525;74;384504;-81
2021/03/16 14:33:34;;;;;;;1.20;1.10;;;;;;;10.76;51.72;99502.80;3896070;74;384504;-80
2021/03/16 14:38:55;;;;;;;1.53;1.43;;;;;;;10.72;47.05;99499.84;3749099;77;384515;-81
2021/03/16 14:44:16;;;;;;;2.30;0.80;;;;;;;10.34;49.82;99506.80;3895364;74;394492;-81
2021/03/16 14:49:38;;;;;;;1.70;0.93;;;;;;;10.03;49.62;99501.17;3895036;74;394001;-80
2021/03/16 14:54:59;;;;;;;1.10;0.60;;;;;;;10.47;50.46;99499.78;3896191;74;383834;-81
2021/03/16 15:00:21;;;;;;;1.70;1.60;;;;;;;10.16;50.41;99502.41;3895109;75;396123;-81
2021/03/16 15:05:45;;;;;;;0.80;0.47;;;;;;;10.10;50.54;99492.16;3749580;77;384553;-81
2021/03/16 15:11:06;;;;;;;1.37;0.60;;;;;;;10.44;48.76;99493.67;3895394;75;390755;-81
2021/03/16 15:16:27;;;;;;;1.33;0.70;;;;;;;9.21;51.16;99482.95;3896310;74;384768;-81
2021/03/16 15:21:49;;;;;;;0.80;0.50;;;;;;;9.13;52.98;99481.31;3896353;74;384581;-81
2021/03/16 15:27:11;;;;;;;1.50;0.70;;;;;;;8.84;53.93;99485.77;3896145;75;383581;-81
2021/03/16 15:32:32;;;;;;;1.10;1.00;;;;;;;8.55;54.68;99491.34;3895293;73;392153;-81
2021/03/16 15:37:54;;;;;;;1.10;0.70;;;;;;;8.63;58.17;99494.96;3896025;74;388679;-81
2021/03/16 15:43:15;;;;;;;1.20;0.80;;;;;;;8.37;63.72;99497.80;3895760;74;384559;-80
2021/03/16 15:48:37;;;;;;;8.63;0.70;;;;;;;7.72;68.43;99493.81;3895840;74;396306;-82
2021/03/16 15:54:00;;;;;;;1.00;0.83;;;;;;;7.71;70.90;99492.83;3895693;74;388700;-83
2021/03/16 15:59:21;;;;;;;5.13;1.47;;;;;;;7.74;74.12;99489.33;3895405;74;394916;-83
2021/03/16 16:04:42;;;;;;;0.90;0.50;;;;;;;7.67;74.16;99489.23;3896521;74;383842;-82
2021/03/16 16:10:04;;;;;;;0.90;0.60;;;;;;;7.32;74.71;99481.30;3896620;74;384560;-82
2021/03/16 16:15:26;;;;;;;1.60;0.90;;;;;;;7.22;79.45;99489.35;3749370;77;393879;-82
2021/03/16 16:20:48;;;;;;;1.43;1.30;;;;;;;7.08;81.95;99485.59;3896330;75;386640;-82
2021/03/16 16:26:09;;;;;;;8.50;2.60;;;;;;;6.80;84.53;99490.57;3896078;74;386702;-83
2021/03/16 16:31:31;;;;;;;1.83;0.80;;;;;;;6.72;83.64;99499.25;3896179;74;394275;-83
2021/03/16 16:36:52;;;;;;;1.77;1.03;;;;;;;6.53;84.36;99498.50;3895926;74;395096;-82
2021/03/16 16:42:13;;;;;;;1.03;0.90;;;;;;;6.49;85.89;99512.66;3751062;77;383589;-83
2021/03/16 16:47:34;;;;;;;3.60;0.67;;;;;;;6.46;91.87;99516.91;3896732;75;384564;-82
2021/03/16 16:52:55;;;;;;;1.80;1.70;;;;;;;6.22;92.89;99520.51;3895548;74;396161;-82
2021/03/16 16:58:18;;;;;;;1.60;0.87;;;;;;;6.33;93.15;99523.70;3896099;74;395047;-82
2021/03/16 17:03:39;;;;;;;4.23;1.37;;;;;;;6.25;89.05;99531.31;3895838;74;394010;-82
2021/03/16 17:09:00;;;;;;;1.00;0.90;;;;;;;5.59;87.98;99530.05;3896640;74;383578;-82
2021/03/16 17:14:23;;;;;;;1.73;0.83;;;;;;;5.25;96.97;99531.38;3896269;75;387810;-82
2021/03/16 17:19:44;;;;;;;0.80;0.50;;;;;;;4.45;100.00;99533.38;3898083;72;383558;-84
2021/03/16 17:25:06;;;;;;;0.90;0.63;;;;;;;4.13;100.00;99530.34;3896772;74;389766;-82
2021/03/16 17:30:29;;;;;;;1.97;0.93;;;;;;;4.00;100.00;99522.55;3749627;77;383605;-82
2021/03/16 17:35:50;;;;;;;0.80;0.40;;;;;;;3.74;100.00;99521.39;3896599;74;383893;-82
2021/03/16 17:41:11;;;;;;;0.90;0.73;;;;;;;3.76;100.00;99525.92;3896918;74;383787;-82
2021/03/16 17:46:34;;;;;;;1.63;1.27;;;;;;;3.81;100.00;99528.40;3895710;74;396106;-82
2021/03/16 17:52:00;;;;;;;0.80;0.60;;;;;;;3.72;100.00;99530.45;3896739;74;383539;-82
2021/03/16 17:57:20;;;;;;;0.90;0.67;;;;;;;3.77;100.00;99537.04;3767570;76;383569;-82
2021/03/16 18:02:41;;;;;;;1.10;1.00;;;;;;;3.83;100.00;99547.91;3896221;74;383896;-82
2021/03/16 18:08:03;;;;;;;0.90;0.80;;;;;;;3.94;100.00;99549.80;3895993;74;389931;-82
2021/03/16 18:13:24;;;;;;;0.80;0.50;;;;;;;3.93;100.00;99549.02;3766419;77;383545;-82
2021/03/16 18:18:46;;;;;;;0.90;0.53;;;;;;;3.87;100.00;99551.53;3896614;74;383574;-82
2021/03/16 18:24:07;;;;;;;2.00;0.80;;;;;;;3.83;100.00;99552.80;3896139;74;390023;-82
2021/03/16 18:29:29;;;;;;;1.30;0.60;;;;;;;3.66;100.00;99552.23;3766130;78;383852;-82
2021/03/16 18:34:50;;;;;;;1.10;0.60;;;;;;;3.64;100.00;99557.22;3876869;73;388030;-82
2021/03/16 18:40:12;;;;;;;0.87;0.57;;;;;;;3.56;100.00;99554.06;3830696;75;383591;-82
2021/03/16 18:45:33;;;;;;;0.90;0.77;;;;;;;3.52;100.00;99543.07;3822181;76;383584;-82
2021/03/16 18:50:56;;;;;;;0.90;0.57;;;;;;;3.42;100.00;99537.31;3822572;76;383662;-82
2021/03/16 18:56:17;;;;;;;0.90;0.57;;;;;;;3.32;100.00;99535.04;3822446;75;383576;-82
2021/03/16 19:01:40;;;;;;;0.90;0.70;;;;;;;3.22;100.00;99528.73;3825925;76;391913;-82
2021/03/16 19:07:01;;;;;;;2.17;1.97;;;;;;;3.19;100.00;99530.17;3821318;75;396343;-82
2021/03/16 19:12:23;;;;;;;1.57;1.47;;;;;;;3.36;100.00;99538.68;3821670;75;394054;-81
2021/03/16 19:17:45;;;;;;;4.90;2.53;;;;;;;3.25;100.00;99545.70;3821481;75;391952;-81
2021/03/16 19:23:06;;;;;;;1.13;0.90;;;;;;;3.16;100.00;99545.82;3822005;76;387820;-82
2021/03/16 19:28:27;;;;;;;1.30;1.13;;;;;;;3.21;100.00;99545.59;3821559;75;394011;-81
2021/03/16 19:33:52;;;;;;;2.67;1.27;;;;;;;3.18;100.00;99547.64;3821815;74;394058;-81
2021/03/16 19:39:14;;;;;;;1.73;1.63;;;;;;;3.12;100.00;99545.48;3895062;75;390074;-81
2021/03/16 19:44:35;;;;;;;2.17;2.07;;;;;;;3.13;100.00;99545.71;3895320;74;396081;-82
2021/03/16 19:49:56;;;;;;;1.80;1.67;;;;;;;2.80;100.00;99545.00;3895589;74;389060;-81
2021/03/16 19:55:18;;;;;;;3.33;2.20;;;;;;;2.68;100.00;99546.89;3748986;78;391928;-81
2021/03/16 20:00:39;;;;;;;4.70;1.43;;;;;;;3.00;100.00;99546.81;3895556;74;387787;-81
2021/03/16 20:06:00;;;;;;;1.40;1.30;;;;;;;3.02;100.00;99557.37;3915552;72;387740;-82
2021/03/16 20:11:23;;;;;;;1.80;1.40;;;;;;;3.03;100.00;99550.23;3895977;74;383582;-82
2021/03/16 20:16:44;;;;;;;2.03;1.83;;;;;;;3.04;100.00;99551.81;3749276;77;387694;-81
2021/03/16 20:22:05;;;;;;;8.33;1.23;;;;;;;3.10;100.00;99551.03;3895918;74;394258;-82
2021/03/16 20:27:29;;;;;;;1.30;1.20;;;;;;;3.05;100.00;99552.05;3749259;77;387783;-81
2021/03/16 20:32:50;;;;;;;1.93;1.60;;;;;;;3.00;100.00;99550.89;3895162;74;394034;-81
2021/03/16 20:38:11;;;;;;;3.13;2.93;;;;;;;2.93;100.00;99556.67;3749025;76;395075;-80
2021/03/16 20:43:33;;;;;;;1.93;1.83;;;;;;;2.96;100.00;99547.83;3895498;74;396157;-81
2021/03/16 20:48:54;;;;;;;5.50;1.77;;;;;;;2.92;100.00;99551.79;3895119;74;390855;-81
2021/03/16 20:54:16;;;;;;;1.57;0.97;;;;;;;2.92;100.00;99551.79;3895464;74;388799;-81
2021/03/16 20:59:37;;;;;;;2.63;1.77;;;;;;;2.86;100.00;99555.86;3748804;77;396094;-81
2021/03/16 21:05:01;;;;;;;2.37;1.90;;;;;;;2.81;100.00;99547.13;3895355;74;394062;-81
2021/03/16 21:10:23;;;;;;;2.47;2.00;;;;;;;2.82;100.00;99556.33;3749047;77;396290;-81
2021/03/16 21:15:45;;;;;;;1.10;1.00;;;;;;;2.95;100.00;99557.91;3896059;75;387847;-81
2021/03/16 21:21:06;;;;;;;1.43;1.33;;;;;;;2.98;100.00;99558.61;3895468;74;391888;-81
2021/03/16 21:26:29;;;;;;;1.07;0.97;;;;;;;3.04;100.00;99563.23;3895837;75;385646;-81
2021/03/16 21:31:51;;;;;;;1.43;1.33;;;;;;;3.10;100.00;99563.27;3895799;74;393001;-81
2021/03/16 21:37:14;;;;;;;2.60;0.83;;;;;;;3.03;100.00;99570.61;3912793;74;394029;-82
2021/03/16 21:42:36;;;;;;;2.87;2.60;;;;;;;2.87;100.00;99585.98;3919804;74;392001;-81
2021/03/16 21:47:57;;;;;;;1.00;0.80;;;;;;;2.77;100.00;99586.41;3774171;77;387758;-81
2021/03/16 21:53:19;;;;;;;5.77;2.97;;;;;;;2.84;100.00;99583.92;3742192;78;394979;-82
2021/03/16 21:58:40;;;;;;;2.03;0.87;;;;;;;2.77;100.00;99585.62;3742839;78;394034;-81
2021/03/16 22:04:02;;;;;;;2.80;2.10;;;;;;;2.61;100.00;99596.89;3741992;77;396284;-81
2021/03/16 22:09:23;;;;;;;5.50;2.13;;;;;;;2.55;100.00;99585.44;3742279;77;396095;-81
2021/03/16 22:14:45;;;;;;;2.77;2.20;;;;;;;2.56;100.00;99582.95;3742031;77;396093;-81
2021/03/16 22:20:09;;;;;;;1.80;1.60;;;;;;;2.85;100.00;99585.52;3742537;78;394052;-81
2021/03/16 22:25:31;;;;;;;1.60;1.50;;;;;;;2.95;100.00;99578.30;3742452;77;391963;-81
2021/03/16 22:30:52;;;;;;;2.40;2.20;;;;;;;2.72;100.00;99589.34;3742236;77;391907;-81
2021/03/16 22:36:13;;;;;;;6.00;1.70;;;;;;;2.62;100.00;99593.05;3745865;77;390811;-81
2021/03/16 22:41:34;;;;;;;1.43;1.30;;;;;;;2.71;100.00;99582.32;3909117;74;385949;-81
2021/03/16 22:46:55;;;;;;;8.70;2.47;;;;;;;2.63;100.00;99575.06;3908343;75;396323;-81
2021/03/16 22:52:17;;;;;;;3.27;3.07;;;;;;;2.80;100.00;99578.95;3908099;75;396285;-81
2021/03/16 22:57:38;;;;;;;4.23;3.77;;;;;;;2.69;100.00;99569.63;3908385;74;396396;-81
2021/03/16 23:03:00;;;;;;;3.33;3.03;;;;;;;2.57;100.00;99572.88;3908231;74;396361;-82
2021/03/16 23:08:22;;;;;;;1.97;1.83;;;;;;;2.55;100.00;99562.36;3908364;74;396135;-81
2021/03/16 23:13:42;;;;;;;2.87;2.67;;;;;;;2.64;100.00;99564.97;3779147;76;396048;-81
2021/03/16 23:19:07;;;;;;;2.70;1.63;;;;;;;2.79;100.00;99563.78;3754963;78;396098;-81
2021/03/16 23:24:28;;;;;;;2.60;1.23;;;;;;;2.73;100.00;99566.48;3754720;78;396164;-81
2021/03/16 23:29:49;;;;;;;6.67;1.47;;;;;;;2.70;100.00;99561.72;3754805;77;394033;-82
2021/03/16 23:35:14;;;;;;;9.17;3.53;;;;;;;2.50;100.00;99563.91;3754914;77;387802;-82
2021/03/16 23:40:37;;;;;;;3.00;2.23;;;;;;;2.44;100.00;99563.90;3761048;76;387939;-82
2021/03/16 23:45:59;;;;;;;6.20;2.97;;;;;;;2.45;100.00;99562.77;3829759;75;392161;-82
2021/03/16 23:51:20;;;;;;;11.30;4.53;;;;;;;2.56;100.00;99559.06;3771602;76;396298;-82
2021/03/16 23:56:42;;;;;;;4.43;4.00;;;;;;;2.50;100.00;99557.13;3764913;78;391927;-82
